Time;durP1;ratioP1;P1;durP2;ratioP2;P2;SDS_P1;SDS_P2;PMS_P1;PMS_P2;Temp;Humidity;BMP_temperature;BMP_pressure;BME280_temperature;BME280_humidity;BME280_pressure;Samples;Min_cycle;Max_cycle;Signal;HPM_P1;HPM_P2
2023/01/25 05:05:34;;;;;;;4.70;4.20;;;3.40;99.90;;;;;;5220395;23;20237;-65
2023/01/25 05:08:00;;;;;;;4.97;3.73;;;3.40;99.90;;;;;;4998720;28;20182;-66
2023/01/25 05:10:26;;;;;;;8.43;5.07;;;3.40;99.90;;;;;;5035261;28;20173;-66
2023/01/25 05:12:51;;;;;;;6.97;4.70;;;3.40;99.90;;;;;;5055082;28;20177;-64
2023/01/25 05:15:17;;;;;;;5.30;4.13;;;3.40;99.90;;;;;;5052331;28;20288;-66
2023/01/25 05:17:43;;;;;;;5.13;4.10;;;3.40;99.90;;;;;;5031158;28;20189;-66
2023/01/25 05:20:09;;;;;;;6.70;4.50;;;3.40;99.90;;;;;;5015656;28;20253;-67
2023/01/25 05:22:35;;;;;;;8.95;5.65;;;3.40;99.90;;;;;;5035154;28;20426;-65
2023/01/25 05:25:01;;;;;;;7.13;4.93;;;3.40;99.90;;;;;;5034863;28;20273;-65
2023/01/25 05:27:27;;;;;;;5.60;5.07;;;3.40;99.90;;;;;;5017196;28;20175;-65
2023/01/25 05:29:54;;;;;;;5.33;4.33;;;3.40;99.90;;;;;;5021464;28;20181;-65
2023/01/25 05:32:21;;;;;;;9.48;4.95;;;3.30;99.90;;;;;;5022623;28;20687;-65
2023/01/25 05:34:48;;;;;;;9.18;6.63;;;3.30;99.90;;;;;;5022533;28;20755;-67
2023/01/25 05:37:18;;;;;;;7.68;4.57;;;3.30;99.90;;;;;;5015131;28;20254;-62
2023/01/25 05:39:44;;;;;;;7.43;4.25;;;3.30;99.90;;;;;;5023965;28;20193;-66
2023/01/25 05:42:16;;;;;;;6.10;5.10;;;3.30;99.90;;;;;;5035080;28;20172;-66
2023/01/25 05:44:42;;;;;;;9.95;5.65;;;3.30;99.90;;;;;;5033083;28;20193;-64
2023/01/25 05:47:15;;;;;;;4.83;4.30;;;3.30;99.90;;;;;;5034612;28;20174;-65
2023/01/25 05:49:41;;;;;;;5.20;3.85;;;3.30;99.90;;;;;;5031705;28;20788;-67
2023/01/25 05:52:09;;;;;;;6.63;4.20;;;3.30;99.90;;;;;;5034341;28;20245;-66
2023/01/25 05:54:34;;;;;;;6.95;4.10;;;3.30;99.90;;;;;;5027310;28;20532;-65
2023/01/25 05:57:00;;;;;;;6.03;5.07;;;3.30;99.90;;;;;;5014589;28;20171;-64
2023/01/25 05:59:25;;;;;;;5.30;4.80;;;3.30;99.90;;;;;;5019856;28;20604;-66
2023/01/25 06:01:52;;;;;;;7.00;4.50;;;3.30;99.90;;;;;;5033092;28;20508;-65
2023/01/25 06:04:17;;;;;;;6.75;4.47;;;3.30;99.90;;;;;;5029823;28;20194;-65
2023/01/25 06:06:43;;;;;;;9.17;5.60;;;3.30;99.90;;;;;;5033231;28;20663;-66
2023/01/25 06:09:12;;;;;;;6.83;4.83;;;3.30;99.90;;;;;;5031539;28;20174;-67
2023/01/25 06:11:38;;;;;;;6.18;5.05;;;3.30;99.90;;;;;;5014521;28;20254;-65
2023/01/25 06:14:03;;;;;;;9.20;4.70;;;3.30;99.90;;;;;;5015431;28;20628;-66
2023/01/25 06:16:29;;;;;;;7.20;4.07;;;3.30;99.90;;;;;;5028176;28;20259;-65
2023/01/25 06:18:54;;;;;;;4.33;3.93;;;3.40;99.90;;;;;;5019146;28;20185;-66
2023/01/25 06:21:20;;;;;;;7.90;5.00;;;3.40;99.90;;;;;;5054110;28;20200;-65
2023/01/25 06:23:46;;;;;;;4.93;4.27;;;3.30;99.90;;;;;;5044337;28;20169;-66
2023/01/25 06:26:13;;;;;;;6.93;5.10;;;3.30;99.90;;;;;;5034066;28;20695;-68
2023/01/25 06:28:40;;;;;;;7.28;5.45;;;3.40;99.90;;;;;;5034135;28;20177;-65
2023/01/25 06:31:14;;;;;;;6.18;5.05;;;3.40;99.90;;;;;;5034484;28;20652;-66
2023/01/25 06:33:41;;;;;;;5.18;4.00;;;3.40;99.90;;;;;;5034004;28;20177;-66
2023/01/25 06:36:12;;;;;;;5.13;4.63;;;3.40;99.90;;;;;;5043503;28;20246;-66
2023/01/25 06:38:38;;;;;;;4.47;3.95;;;3.40;99.90;;;;;;5047848;28;20264;-66
2023/01/25 06:41:06;;;;;;;5.67;4.60;;;3.40;99.90;;;;;;5034118;28;20198;-66
2023/01/25 06:43:33;;;;;;;6.30;3.88;;;3.40;99.90;;;;;;5030011;28;20186;-67
2023/01/25 06:46:00;;;;;;;6.50;4.70;;;3.40;99.90;;;;;;5016190;28;20277;-66
2023/01/25 06:48:28;;;;;;;8.57;5.78;;;3.40;99.90;;;;;;5018120;28;20249;-66
2023/01/25 06:51:03;;;;;;;7.85;4.57;;;3.40;99.90;;;;;;5032796;28;20170;-69
2023/01/25 06:53:31;;;;;;;4.85;3.20;;;3.40;99.90;;;;;;5040420;28;20252;-71
2023/01/25 06:55:59;;;;;;;4.95;4.53;;;3.40;99.90;;;;;;5053979;28;20201;-71
2023/01/25 06:58:26;;;;;;;4.45;3.53;;;3.40;99.90;;;;;;5032599;28;20204;-73
2023/01/25 07:00:52;;;;;;;10.18;4.35;;;3.40;99.90;;;;;;5013906;28;20217;-72
2023/01/25 07:03:18;;;;;;;7.43;4.50;;;3.40;99.90;;;;;;5024186;28;20177;-73
2023/01/25 07:05:44;;;;;;;4.87;4.47;;;3.40;99.90;;;;;;5032011;28;20198;-74
2023/01/25 07:08:09;;;;;;;5.57;4.80;;;3.50;99.90;;;;;;5022338;28;20230;-75
2023/01/25 07:10:35;;;;;;;5.33;4.87;;;3.50;99.90;;;;;;5019930;28;20179;-75
2023/01/25 07:13:00;;;;;;;5.30;3.93;;;3.50;99.90;;;;;;5027362;28;20179;-74
2023/01/25 07:15:26;;;;;;;5.27;3.97;;;3.50;99.90;;;;;;5013971;28;20694;-73
2023/01/25 07:17:52;;;;;;;5.45;4.43;;;3.50;99.90;;;;;;5016312;28;20171;-73
2023/01/25 07:20:18;;;;;;;4.47;4.10;;;3.50;99.90;;;;;;5014911;28;20582;-73
2023/01/25 07:22:44;;;;;;;5.30;4.77;;;3.50;99.90;;;;;;5013329;28;20199;-74
2023/01/25 07:25:09;;;;;;;6.70;5.00;;;3.50;99.90;;;;;;5013526;28;20273;-74
2023/01/25 07:27:35;;;;;;;7.23;4.60;;;3.50;99.90;;;;;;5012418;28;20183;-74
2023/01/25 07:30:01;;;;;;;8.43;4.37;;;3.60;99.90;;;;;;5013361;28;20167;-73
2023/01/25 07:32:27;;;;;;;3.92;3.50;;;3.60;99.90;;;;;;5013696;28;20169;-73
2023/01/25 07:34:53;;;;;;;13.23;4.53;;;3.60;99.90;;;;;;5013011;28;20195;-73
2023/01/25 07:37:19;;;;;;;5.83;3.93;;;3.60;99.90;;;;;;5013447;28;20406;-73
2023/01/25 07:39:48;;;;;;;5.07;4.57;;;3.60;99.90;;;;;;5013376;28;20206;-73
2023/01/25 07:42:14;;;;;;;5.90;5.00;;;3.60;99.90;;;;;;5012820;28;20167;-73
2023/01/25 07:44:40;;;;;;;5.75;4.65;;;3.60;99.90;;;;;;5013062;28;20191;-74
2023/01/25 07:47:05;;;;;;;5.17;4.00;;;3.60;99.90;;;;;;5013493;28;20174;-74
2023/01/25 07:49:31;;;;;;;4.77;4.27;;;3.60;99.90;;;;;;5014105;28;20464;-73
2023/01/25 07:51:57;;;;;;;5.70;4.80;;;3.60;99.90;;;;;;5014142;28;20317;-72
2023/01/25 07:54:22;;;;;;;7.57;4.03;;;3.70;99.90;;;;;;5014154;28;20178;-73
2023/01/25 07:56:48;;;;;;;5.13;2.97;;;3.70;99.90;;;;;;5013929;28;20195;-72
2023/01/25 07:59:14;;;;;;;7.07;4.73;;;3.70;99.90;;;;;;5016591;28;20190;-74
2023/01/25 08:01:40;;;;;;;9.17;6.13;;;3.70;99.90;;;;;;5016488;28;20175;-74
2023/01/25 08:04:06;;;;;;;9.50;5.03;;;3.70;99.90;;;;;;5017343;28;20432;-74
2023/01/25 08:06:37;;;;;;;3.92;3.28;;;3.70;99.90;;;;;;5017468;28;20819;-74
2023/01/25 08:09:13;;;;;;;8.63;4.88;;;3.70;99.90;;;;;;5017969;28;20257;-73
2023/01/25 08:11:40;;;;;;;7.88;5.82;;;3.80;99.90;;;;;;5019158;28;20175;-73
2023/01/25 08:14:07;;;;;;;9.25;5.07;;;3.70;99.90;;;;;;5055846;28;20177;-73
2023/01/25 08:16:33;;;;;;;5.80;4.63;;;3.70;99.90;;;;;;5056528;28;20204;-73
2023/01/25 08:19:00;;;;;;;6.07;5.30;;;3.70;99.90;;;;;;5056559;28;20240;-72
2023/01/25 08:21:30;;;;;;;5.25;4.75;;;3.80;99.90;;;;;;5056516;28;20858;-72
2023/01/25 08:24:00;;;;;;;5.30;4.13;;;3.70;99.90;;;;;;5056238;28;20174;-73
2023/01/25 08:26:26;;;;;;;6.38;4.10;;;3.80;99.90;;;;;;5055404;28;20672;-73
2023/01/25 08:28:52;;;;;;;4.43;3.95;;;3.80;99.90;;;;;;5056528;28;20221;-73
2023/01/25 08:31:22;;;;;;;6.97;5.22;;;3.80;99.90;;;;;;5055086;28;20252;-73
2023/01/25 08:33:48;;;;;;;5.28;4.78;;;3.70;99.90;;;;;;5050437;28;20225;-74
2023/01/25 08:36:17;;;;;;;5.22;3.65;;;3.70;99.90;;;;;;5036049;28;20746;-74
2023/01/25 08:38:43;;;;;;;6.10;4.35;;;3.80;99.90;;;;;;5036116;28;20595;-73
2023/01/25 08:41:11;;;;;;;6.18;4.82;;;3.70;99.90;;;;;;5036301;28;20163;-72
2023/01/25 08:43:38;;;;;;;5.28;3.83;;;3.80;99.90;;;;;;5035726;28;20178;-73
2023/01/25 08:46:04;;;;;;;6.85;4.40;;;3.80;99.90;;;;;;5035996;28;20244;-73
2023/01/25 08:48:30;;;;;;;7.30;4.40;;;3.80;99.90;;;;;;5036300;28;20166;-73
2023/01/25 08:50:56;;;;;;;6.65;4.78;;;3.90;99.90;;;;;;5036043;28;20175;-73
2023/01/25 08:53:21;;;;;;;9.50;4.93;;;3.90;99.90;;;;;;5036051;28;20266;-73
2023/01/25 08:55:48;;;;;;;6.20;5.47;;;3.90;99.90;;;;;;5036038;28;20204;-73
2023/01/25 08:58:15;;;;;;;4.50;4.10;;;3.80;99.90;;;;;;5036275;28;20409;-72
2023/01/25 09:00:42;;;;;;;5.80;3.50;;;3.90;99.90;;;;;;5035725;28;20176;-73
2023/01/25 09:03:09;;;;;;;8.38;4.82;;;3.90;99.90;;;;;;5035559;28;20206;-74
2023/01/25 09:05:36;;;;;;;13.73;5.68;;;4.00;99.90;;;;;;5036026;28;20278;-75
2023/01/25 09:08:03;;;;;;;14.45;3.80;;;4.00;99.90;;;;;;5035627;28;20521;-74
2023/01/25 09:10:29;;;;;;;7.05;4.18;;;4.00;99.90;;;;;;5036833;28;20174;-73
2023/01/25 09:12:54;;;;;;;4.65;4.05;;;4.00;99.90;;;;;;5051685;28;20181;-74
2023/01/25 09:15:21;;;;;;;8.43;5.20;;;3.90;99.90;;;;;;5060535;28;20213;-73
2023/01/25 09:17:50;;;;;;;8.15;4.72;;;3.90;99.90;;;;;;5058843;28;20208;-74
2023/01/25 09:20:16;;;;;;;5.22;4.40;;;3.90;99.90;;;;;;5058623;28;20196;-73
2023/01/25 09:22:41;;;;;;;5.53;4.50;;;3.90;99.90;;;;;;5062376;28;20635;-73
2023/01/25 09:25:08;;;;;;;8.77;3.90;;;3.90;99.90;;;;;;5063165;28;20193;-74
2023/01/25 09:27:33;;;;;;;5.75;4.70;;;4.00;99.90;;;;;;5058733;28;20606;-74
2023/01/25 09:29:59;;;;;;;4.83;4.37;;;3.90;99.90;;;;;;5055295;28;20197;-73
2023/01/25 09:32:25;;;;;;;6.13;4.63;;;3.90;99.90;;;;;;5055908;28;20535;-73
2023/01/25 09:34:50;;;;;;;11.00;5.37;;;3.90;99.90;;;;;;5056060;28;20209;-73
2023/01/25 09:37:16;;;;;;;7.30;5.77;;;3.80;99.90;;;;;;5056568;28;20191;-73
2023/01/25 09:39:42;;;;;;;7.70;6.03;;;3.90;99.90;;;;;;5055091;28;20204;-73
2023/01/25 09:42:22;;;;;;;7.77;5.57;;;3.90;99.90;;;;;;5054870;28;20245;-73
2023/01/25 09:45:16;;;;;;;5.63;4.30;;;3.90;99.90;;;;;;5054455;28;20284;-73
2023/01/25 09:48:19;;;;;;;6.38;4.85;;;3.90;99.90;;;;;;5054821;28;20166;-73
2023/01/25 09:51:13;;;;;;;8.35;5.93;;;3.90;99.90;;;;;;5053389;28;20177;-73
2023/01/25 09:53:52;;;;;;;7.93;5.72;;;3.90;99.90;;;;;;5054381;28;20246;-73
2023/01/25 09:56:24;;;;;;;7.55;4.80;;;3.90;99.90;;;;;;5054230;28;20197;-74
2023/01/25 09:58:54;;;;;;;8.88;5.97;;;3.90;99.90;;;;;;5053825;28;20173;-74
2023/01/25 10:01:40;;;;;;;5.30;4.45;;;3.90;99.90;;;;;;5053107;28;20181;-74
2023/01/25 10:04:11;;;;;;;5.13;4.63;;;3.90;99.90;;;;;;5053917;28;20162;-73
2023/01/25 10:06:39;;;;;;;4.85;4.45;;;3.90;99.90;;;;;;5053000;28;20228;-73
2023/01/25 10:09:13;;;;;;;14.18;7.05;;;3.90;99.90;;;;;;5054147;28;20530;-73
2023/01/25 10:11:39;;;;;;;9.60;6.53;;;3.90;99.90;;;;;;5052991;28;20163;-74
2023/01/25 10:14:16;;;;;;;7.93;5.53;;;3.90;99.90;;;;;;5034077;28;20245;-73
2023/01/25 10:16:48;;;;;;;5.32;4.82;;;3.90;99.90;;;;;;5034093;28;20212;-73
2023/01/25 10:19:33;;;;;;;5.53;5.03;;;3.90;99.90;;;;;;5034245;28;20158;-74
2023/01/25 10:22:15;;;;;;;8.23;5.40;;;3.90;99.90;;;;;;5033692;28;20170;-73
2023/01/25 10:25:25;;;;;;;7.15;4.85;;;3.90;99.90;;;;;;5032302;28;20189;-74
2023/01/25 10:28:15;;;;;;;9.80;7.43;;;3.90;99.90;;;;;;5027162;28;20183;-73
2023/01/25 10:30:53;;;;;;;8.90;5.70;;;3.90;99.90;;;;;;5033974;28;20173;-72
2023/01/25 10:33:20;;;;;;;8.95;5.65;;;3.90;99.90;;;;;;5033896;28;20646;-73
2023/01/25 10:35:48;;;;;;;8.90;5.93;;;3.90;99.90;;;;;;5033671;28;20555;-73
2023/01/25 10:38:31;;;;;;;7.80;5.90;;;4.00;99.90;;;;;;5029547;28;20177;-72
2023/01/25 10:41:25;;;;;;;10.00;5.70;;;4.00;99.90;;;;;;5018605;28;20477;-73
2023/01/25 10:44:20;;;;;;;7.75;4.80;;;4.00;99.90;;;;;;5029464;28;20171;-73
2023/01/25 10:46:38;;;;;;;7.70;6.07;;;3.90;99.90;;;;;;5029540;28;20209;-73
2023/01/25 10:49:19;;;;;;;11.75;6.53;;;3.90;99.90;;;;;;5033342;28;20170;-72
2023/01/25 10:51:45;;;;;;;8.43;6.55;;;3.90;99.90;;;;;;5033640;28;20640;-73
2023/01/25 10:54:14;;;;;;;7.50;4.20;;;3.90;99.90;;;;;;5017810;28;20183;-73
2023/01/25 10:56:42;;;;;;;7.55;5.50;;;3.90;99.90;;;;;;5012298;28;20260;-73
2023/01/25 10:59:28;;;;;;;12.20;7.95;;;3.90;99.90;;;;;;5014099;28;20176;-73
2023/01/25 11:01:53;;;;;;;9.75;6.00;;;3.90;99.90;;;;;;5017565;28;20183;-74
2023/01/25 11:04:30;;;;;;;14.00;7.80;;;3.90;99.90;;;;;;5030155;28;20231;-74
2023/01/25 11:06:56;;;;;;;7.10;6.40;;;3.90;99.90;;;;;;5026440;28;20217;-74
2023/01/25 11:09:29;;;;;;;8.18;6.10;;;3.90;99.90;;;;;;5013481;28;20605;-72
2023/01/25 11:12:01;;;;;;;8.45;6.25;;;3.90;99.90;;;;;;5013950;28;20185;-73
2023/01/25 11:14:29;;;;;;;6.10;5.00;;;3.80;99.90;;;;;;5016212;28;20182;-73
2023/01/25 11:16:57;;;;;;;9.82;6.65;;;3.80;99.90;;;;;;5013656;28;20210;-73
2023/01/25 11:19:36;;;;;;;10.70;7.13;;;3.80;99.90;;;;;;5023362;28;20171;-73
2023/01/25 11:22:18;;;;;;;6.82;5.35;;;3.80;99.90;;;;;;5028126;28;20174;-73
2023/01/25 11:24:44;;;;;;;6.47;4.97;;;3.80;99.90;;;;;;5016616;28;20194;-73
2023/01/25 11:27:26;;;;;;;9.77;7.00;;;3.80;99.90;;;;;;5017964;28;20171;-74
2023/01/25 11:30:04;;;;;;;10.70;6.90;;;3.70;99.90;;;;;;5037148;28;20176;-74
2023/01/25 11:32:30;;;;;;;12.43;6.88;;;3.80;99.90;;;;;;5033298;28;20568;-73
2023/01/25 11:34:56;;;;;;;8.75;6.57;;;3.80;99.90;;;;;;5018611;28;20228;-65
2023/01/25 11:37:34;;;;;;;6.73;6.03;;;3.80;99.90;;;;;;5028374;28;20170;-65
2023/01/25 11:40:30;;;;;;;11.10;7.10;;;3.80;99.90;;;;;;5027595;28;20256;-65
2023/01/25 11:43:27;;;;;;;6.97;4.72;;;3.80;99.90;;;;;;5032026;28;20170;-66
2023/01/25 11:46:26;;;;;;;5.32;4.63;;;3.80;99.90;;;;;;5020868;28;20202;-65
2023/01/25 11:49:11;;;;;;;10.13;5.90;;;3.80;99.90;;;;;;5040066;28;20178;-66
2023/01/25 11:51:42;;;;;;;9.95;7.05;;;3.70;99.90;;;;;;5022952;28;20163;-66
2023/01/25 11:54:27;;;;;;;14.23;7.03;;;3.70;99.90;;;;;;5022984;28;20187;-67
2023/01/25 11:57:20;;;;;;;8.00;6.68;;;3.60;99.90;;;;;;5032566;28;20277;-65
2023/01/25 11:59:50;;;;;;;12.23;7.30;;;3.70;99.90;;;;;;5030535;28;20591;-66
2023/01/25 12:02:45;;;;;;;11.27;7.35;;;3.70;99.90;;;;;;5038428;28;20179;-66
2023/01/25 12:05:22;;;;;;;8.00;5.47;;;3.70;99.90;;;;;;5020236;28;20194;-67
2023/01/25 12:08:01;;;;;;;11.00;6.53;;;3.70;99.90;;;;;;5026519;28;20214;-66
2023/01/25 12:10:45;;;;;;;12.60;8.18;;;3.60;99.90;;;;;;5038523;28;20176;-66
2023/01/25 12:13:32;;;;;;;5.72;5.13;;;3.60;99.90;;;;;;5034138;28;20170;-67
2023/01/25 12:16:20;;;;;;;14.77;6.63;;;3.60;99.90;;;;;;5032909;28;20582;-67
2023/01/25 12:19:18;;;;;;;8.15;5.45;;;3.60;99.90;;;;;;5029461;28;20166;-70
2023/01/25 12:21:58;;;;;;;8.25;6.22;;;3.60;99.90;;;;;;5017306;28;20171;-68
2023/01/25 12:24:43;;;;;;;8.48;5.38;;;3.60;99.90;;;;;;5024900;28;20178;-70
2023/01/25 12:27:34;;;;;;;11.90;6.60;;;3.60;99.90;;;;;;5018865;28;20182;-67
2023/01/25 12:30:25;;;;;;;10.50;7.60;;;3.60;99.90;;;;;;5031753;28;20179;-70
2023/01/25 12:33:30;;;;;;;8.05;6.68;;;3.60;99.90;;;;;;5027334;28;20233;-67
2023/01/25 12:36:19;;;;;;;6.55;5.50;;;3.60;99.90;;;;;;4987608;28;20199;-66
2023/01/25 12:38:49;;;;;;;8.93;6.13;;;3.60;99.90;;;;;;5033961;28;20561;-66
2023/01/25 12:41:33;;;;;;;13.25;7.32;;;3.50;99.90;;;;;;5019476;28;20629;-66
2023/01/25 12:44:20;;;;;;;12.07;8.05;;;3.60;99.90;;;;;;5026702;28;20170;-66
2023/01/25 12:47:09;;;;;;;9.40;6.43;;;3.60;99.90;;;;;;5021210;28;20197;-63
2023/01/25 12:49:38;;;;;;;12.68;7.25;;;3.60;99.90;;;;;;5030747;28;20189;-64
2023/01/25 12:52:18;;;;;;;12.15;7.38;;;3.60;99.90;;;;;;5033102;28;20193;-66
2023/01/25 12:54:46;;;;;;;12.00;6.85;;;3.60;99.90;;;;;;5019072;28;20190;-66
2023/01/25 12:57:20;;;;;;;11.45;7.03;;;3.60;99.90;;;;;;5016060;28;20181;-66
2023/01/25 12:59:54;;;;;;;11.30;7.72;;;3.60;99.90;;;;;;5018558;28;20194;-67
2023/01/25 13:02:44;;;;;;;10.02;6.20;;;3.70;99.90;;;;;;5034702;28;20212;-66
2023/01/25 13:05:29;;;;;;;10.70;8.15;;;3.70;99.90;;;;;;5027824;28;20229;-70
2023/01/25 13:08:18;;;;;;;11.63;8.00;;;3.60;99.90;;;;;;5015906;28;20712;-68
2023/01/25 13:10:53;;;;;;;9.27;6.65;;;3.60;99.90;;;;;;5024276;28;20171;-66
2023/01/25 13:13:24;;;;;;;7.53;6.32;;;3.60;99.90;;;;;;5035160;28;20699;-64
2023/01/25 13:15:50;;;;;;;9.75;5.78;;;3.60;99.90;;;;;;5035313;28;20213;-66
2023/01/25 13:18:27;;;;;;;8.48;5.55;;;3.60;99.90;;;;;;5024281;28;20661;-64
2023/01/25 13:20:58;;;;;;;10.50;5.95;;;3.60;99.90;;;;;;5017222;28;20178;-64
2023/01/25 13:23:33;;;;;;;11.18;7.30;;;3.60;99.90;;;;;;5033245;28;20178;-69
2023/01/25 13:26:21;;;;;;;11.95;7.22;;;3.60;99.90;;;;;;5033820;28;20272;-66
2023/01/25 13:28:54;;;;;;;8.70;6.45;;;3.60;99.90;;;;;;5024051;28;20698;-66
2023/01/25 13:31:38;;;;;;;11.27;6.57;;;3.60;99.90;;;;;;5015861;28;20243;-66
2023/01/25 13:34:10;;;;;;;8.90;6.30;;;3.60;99.90;;;;;;5014891;28;20259;-65
2023/01/25 13:36:39;;;;;;;7.93;5.55;;;3.60;99.90;;;;;;5014932;28;20660;-66
2023/01/25 13:39:23;;;;;;;11.75;7.70;;;3.60;99.90;;;;;;5014690;28;20167;-66
2023/01/25 13:42:00;;;;;;;9.82;8.65;;;3.60;99.90;;;;;;5013880;28;20671;-65
2023/01/25 13:44:28;;;;;;;6.43;5.75;;;3.60;99.90;;;;;;5014751;28;20175;-66
2023/01/25 13:47:01;;;;;;;10.30;6.78;;;3.50;99.90;;;;;;5014990;28;20181;-67
2023/01/25 13:49:53;;;;;;;11.40;5.95;;;3.60;99.90;;;;;;5014748;28;20576;-65
2023/01/25 13:52:21;;;;;;;8.68;6.25;;;3.60;99.90;;;;;;5014831;28;20175;-66
2023/01/25 13:54:49;;;;;;;9.70;6.85;;;3.50;99.90;;;;;;5014239;28;20569;-66
2023/01/25 13:57:20;;;;;;;11.02;7.57;;;3.50;99.90;;;;;;5014049;28;20203;-66
2023/01/25 13:59:45;;;;;;;11.25;6.20;;;3.60;99.90;;;;;;5014887;28;20170;-66
2023/01/25 14:02:23;;;;;;;10.90;7.57;;;3.60;99.90;;;;;;5014783;28;20199;-66
2023/01/25 14:04:50;;;;;;;13.02;8.35;;;3.70;99.90;;;;;;5013173;28;20256;-66
2023/01/25 14:07:19;;;;;;;12.50;6.28;;;3.60;99.90;;;;;;5014711;28;20223;-65
2023/01/25 14:09:46;;;;;;;7.88;7.05;;;3.50;99.90;;;;;;5014775;28;20175;-66
2023/01/25 14:12:29;;;;;;;11.43;8.13;;;3.50;99.90;;;;;;5014640;28;20254;-66
2023/01/25 14:14:55;;;;;;;12.45;8.85;;;3.50;99.90;;;;;;5014202;28;20628;-66
2023/01/25 14:17:22;;;;;;;8.77;6.93;;;3.60;99.90;;;;;;5014695;28;20201;-67
2023/01/25 14:19:54;;;;;;;10.63;6.05;;;3.50;99.90;;;;;;5014922;28;20645;-65
2023/01/25 14:22:23;;;;;;;7.60;6.68;;;3.50;99.90;;;;;;5014484;28;20168;-66
2023/01/25 14:25:18;;;;;;;12.55;8.75;;;3.60;99.90;;;;;;5014217;28;20564;-66
2023/01/25 14:28:01;;;;;;;11.50;6.82;;;3.50;99.90;;;;;;5014410;28;20244;-66
2023/01/25 14:30:29;;;;;;;11.00;7.85;;;3.60;99.90;;;;;;5014456;28;20262;-65
2023/01/25 14:32:57;;;;;;;9.80;7.90;;;3.50;99.90;;;;;;5013959;28;20167;-66
2023/01/25 14:35:29;;;;;;;9.90;6.35;;;3.50;99.90;;;;;;5014201;28;20230;-66
2023/01/25 14:37:55;;;;;;;11.00;7.28;;;3.50;99.90;;;;;;5013875;28;20179;-67
2023/01/25 14:40:23;;;;;;;14.18;8.35;;;3.50;99.90;;;;;;5013883;28;20257;-66
2023/01/25 14:42:50;;;;;;;19.27;9.20;;;3.50;99.90;;;;;;5013708;28;20182;-66
2023/01/25 14:45:16;;;;;;;11.63;8.25;;;3.50;99.90;;;;;;5014057;28;20199;-66
2023/01/25 14:47:42;;;;;;;10.00;7.63;;;3.40;99.90;;;;;;5014207;28;20637;-66
2023/01/25 14:50:37;;;;;;;13.70;10.00;;;3.40;99.90;;;;;;5014117;28;20210;-66
2023/01/25 14:53:19;;;;;;;11.60;7.32;;;3.40;99.90;;;;;;5008585;28;20297;-66
2023/01/25 14:55:47;;;;;;;8.55;6.30;;;3.40;99.90;;;;;;5013835;28;20207;-66
2023/01/25 14:58:20;;;;;;;12.88;8.68;;;3.40;99.90;;;;;;5012772;28;20178;-66
2023/01/25 15:00:57;;;;;;;12.93;8.07;;;3.50;99.90;;;;;;5013974;28;20220;-66
2023/01/25 15:03:25;;;;;;;6.68;5.60;;;3.50;99.90;;;;;;5013504;28;20657;-66
2023/01/25 15:05:53;;;;;;;16.80;9.80;;;3.50;99.90;;;;;;5013868;28;20190;-66
2023/01/25 15:08:37;;;;;;;9.35;8.00;;;3.50;99.90;;;;;;5013637;28;20198;-66
2023/01/25 15:13:59;;;;;;;16.77;8.68;;;3.50;99.90;;;;;;5013740;28;20209;-66
2023/01/25 15:16:34;;;;;;;11.23;7.43;;;3.50;99.90;;;;;;5013765;28;20213;-66
2023/01/25 15:19:00;;;;;;;13.20;8.18;;;3.50;99.90;;;;;;5013828;28;20167;-66
2023/01/25 15:21:28;;;;;;;16.43;9.33;;;3.50;99.90;;;;;;5030044;28;20181;-66
2023/01/25 15:23:55;;;;;;;17.58;9.15;;;3.50;99.90;;;;;;5032873;28;20170;-66
2023/01/25 15:26:29;;;;;;;10.73;7.70;;;3.50;99.90;;;;;;5032053;28;20202;-67
2023/01/25 15:28:57;;;;;;;15.52;9.68;;;3.50;99.90;;;;;;5030164;28;20197;-68
2023/01/25 15:31:30;;;;;;;10.25;8.60;;;3.50;99.90;;;;;;5033044;28;20208;-67
2023/01/25 15:33:57;;;;;;;11.73;7.47;;;3.50;99.90;;;;;;5032861;28;20185;-66
2023/01/25 15:36:23;;;;;;;15.38;7.63;;;3.50;99.90;;;;;;5033079;28;20209;-66
2023/01/25 15:38:49;;;;;;;16.98;6.75;;;3.60;99.90;;;;;;5033263;28;20248;-65
2023/01/25 15:41:17;;;;;;;11.90;8.20;;;3.60;99.90;;;;;;5033339;28;20171;-65
2023/01/25 15:43:43;;;;;;;10.68;8.73;;;3.60;99.90;;;;;;5031620;28;20200;-66
2023/01/25 15:46:23;;;;;;;13.70;9.80;;;3.50;99.90;;;;;;5033015;28;20198;-66
2023/01/25 15:48:52;;;;;;;9.40;6.32;;;3.50;99.90;;;;;;5033140;28;20193;-65
2023/01/25 15:51:18;;;;;;;10.93;6.63;;;3.50;99.90;;;;;;5033209;28;20263;-65
2023/01/25 15:53:44;;;;;;;11.27;7.22;;;3.40;99.90;;;;;;5032550;28;20178;-65
2023/01/25 15:56:16;;;;;;;9.63;6.60;;;3.40;99.90;;;;;;5032252;28;20220;-67
2023/01/25 15:58:47;;;;;;;16.17;7.93;;;3.30;99.90;;;;;;5032908;28;20163;-62
2023/01/25 16:01:13;;;;;;;11.80;7.53;;;3.30;99.90;;;;;;5032727;28;20173;-66
2023/01/25 16:03:40;;;;;;;10.55;6.60;;;3.30;99.90;;;;;;5032144;28;20175;-66
2023/01/25 16:06:46;;;;;;;10.30;6.82;;;3.30;99.90;;;;;;5032895;28;20277;-66
2023/01/25 16:09:26;;;;;;;11.93;7.45;;;3.20;99.90;;;;;;5032262;28;20567;-65
2023/01/25 16:11:56;;;;;;;12.15;6.50;;;3.20;99.90;;;;;;5032331;28;20243;-64
2023/01/25 16:14:27;;;;;;;12.07;7.78;;;3.20;99.90;;;;;;5032419;28;20214;-64
2023/01/25 16:16:54;;;;;;;10.63;6.63;;;3.20;99.90;;;;;;5032726;28;20289;-66
2023/01/25 16:19:21;;;;;;;9.23;5.82;;;3.20;99.90;;;;;;5033868;28;20531;-65
2023/01/25 16:21:48;;;;;;;7.75;5.95;;;3.20;99.90;;;;;;5036644;28;20163;-66
2023/01/25 16:24:14;;;;;;;13.23;7.30;;;3.20;99.90;;;;;;5035798;28;20193;-65
2023/01/25 16:26:47;;;;;;;8.10;7.00;;;3.20;99.90;;;;;;5036172;28;20190;-65
2023/01/25 16:29:13;;;;;;;11.20;6.90;;;3.20;99.90;;;;;;5035755;28;20170;-64
2023/01/25 16:31:39;;;;;;;15.95;8.50;;;3.20;99.90;;;;;;5033938;28;20182;-65
2023/01/25 16:34:05;;;;;;;12.73;7.00;;;3.20;99.90;;;;;;5034379;28;20274;-65
2023/01/25 16:36:33;;;;;;;10.15;6.68;;;3.20;99.90;;;;;;5026545;28;20284;-62
2023/01/25 16:39:08;;;;;;;9.07;5.88;;;3.20;99.90;;;;;;5024032;28;20188;-63
2023/01/25 16:41:34;;;;;;;13.50;5.85;;;3.20;99.90;;;;;;5024011;28;20578;-64
2023/01/25 16:44:00;;;;;;;11.67;5.43;;;3.30;99.90;;;;;;5025581;28;20258;-63
2023/01/25 16:46:26;;;;;;;15.40;8.53;;;3.20;99.90;;;;;;5024236;28;20954;-62
2023/01/25 16:48:51;;;;;;;8.10;5.70;;;3.20;99.90;;;;;;5026122;28;20174;-62
2023/01/25 16:51:23;;;;;;;7.60;5.20;;;3.20;99.90;;;;;;5025541;28;20406;-64
2023/01/25 16:53:50;;;;;;;7.47;4.18;;;3.20;99.90;;;;;;5022573;28;20181;-62
2023/01/25 16:56:24;;;;;;;13.63;7.25;;;3.20;99.90;;;;;;5032458;28;20577;-64
2023/01/25 16:58:51;;;;;;;9.25;5.57;;;3.20;99.90;;;;;;5035720;28;20532;-64
2023/01/25 17:01:18;;;;;;;11.95;6.70;;;3.20;99.90;;;;;;5034963;28;20236;-62
2023/01/25 17:03:44;;;;;;;10.15;6.15;;;3.10;99.90;;;;;;5034692;28;20170;-65
2023/01/25 17:06:25;;;;;;;9.97;6.90;;;3.10;99.90;;;;;;5035361;28;20190;-65
2023/01/25 17:08:54;;;;;;;11.75;7.25;;;3.10;99.90;;;;;;5035625;28;20930;-64
2023/01/25 17:11:20;;;;;;;11.35;6.57;;;3.10;99.90;;;;;;5036563;28;20556;-64
2023/01/25 17:13:50;;;;;;;13.77;5.97;;;3.20;99.90;;;;;;5034863;28;20178;-64
2023/01/25 17:16:17;;;;;;;7.20;5.05;;;3.20;99.90;;;;;;5034774;28;20545;-64
2023/01/25 17:18:43;;;;;;;7.93;5.10;;;3.20;99.90;;;;;;5035346;28;20187;-64
2023/01/25 17:21:10;;;;;;;8.43;6.37;;;3.20;99.90;;;;;;5035024;28;20180;-64
2023/01/25 17:23:36;;;;;;;8.30;5.85;;;3.20;99.90;;;;;;5034966;28;20181;-64
2023/01/25 17:26:08;;;;;;;13.65;5.68;;;3.20;99.90;;;;;;5035246;28;20190;-64
2023/01/25 17:28:34;;;;;;;7.93;5.82;;;3.20;99.90;;;;;;5035429;28;20552;-65
2023/01/25 17:31:00;;;;;;;8.10;5.05;;;3.30;99.90;;;;;;5033759;28;20190;-66
2023/01/25 17:33:27;;;;;;;11.05;6.25;;;3.20;99.90;;;;;;5034706;28;20186;-67
2023/01/25 17:35:57;;;;;;;6.95;5.68;;;3.30;99.90;;;;;;5034919;28;20298;-67
2023/01/25 17:38:24;;;;;;;9.70;5.35;;;3.30;99.90;;;;;;5034487;28;20264;-65
2023/01/25 17:40:50;;;;;;;7.90;6.65;;;3.30;99.90;;;;;;5034273;28;20309;-65
2023/01/25 17:43:15;;;;;;;11.63;6.70;;;3.30;99.90;;;;;;5034313;28;20257;-64
2023/01/25 17:45:41;;;;;;;5.77;4.27;;;3.30;99.90;;;;;;5029815;28;20199;-64
2023/01/25 17:48:11;;;;;;;8.97;5.60;;;3.30;99.90;;;;;;5016510;28;20179;-61
2023/01/25 17:50:38;;;;;;;8.38;5.13;;;3.30;99.90;;;;;;5027354;28;20587;-68
2023/01/25 17:53:05;;;;;;;7.60;5.45;;;3.40;99.90;;;;;;5033332;28;20189;-65
2023/01/25 17:55:35;;;;;;;12.25;5.25;;;3.30;99.90;;;;;;5033152;28;20567;-63
2023/01/25 17:58:01;;;;;;;8.18;4.22;;;3.20;99.90;;;;;;5033810;28;20175;-64
2023/01/25 18:00:27;;;;;;;7.50;4.47;;;3.20;99.90;;;;;;5033996;28;20174;-68
2023/01/25 18:02:53;;;;;;;5.87;4.37;;;3.20;99.90;;;;;;5031240;28;20178;-64
2023/01/25 18:05:19;;;;;;;10.25;4.22;;;3.30;99.90;;;;;;5026340;28;20197;-63
2023/01/25 18:07:45;;;;;;;6.95;5.00;;;3.30;99.90;;;;;;5032765;28;20194;-64
2023/01/25 18:10:11;;;;;;;7.47;5.03;;;3.20;99.90;;;;;;5018880;28;20188;-65
2023/01/25 18:12:37;;;;;;;6.80;5.27;;;3.20;99.90;;;;;;5028915;28;20195;-66
2023/01/25 18:15:04;;;;;;;8.50;5.53;;;3.20;99.90;;;;;;5023720;28;20450;-64
2023/01/25 18:17:34;;;;;;;7.90;5.82;;;3.20;99.90;;;;;;5014411;28;20814;-73
2023/01/25 18:20:04;;;;;;;7.55;6.38;;;3.10;99.90;;;;;;5029637;28;20166;-66
2023/01/25 18:22:31;;;;;;;7.25;5.68;;;3.10;99.90;;;;;;5032298;28;20174;-67